Data for 07/26/2018

Time Sea-Level Adjusted Pressure Absolute Pressure Temperature Relative Humidity Dew Point   
(mb) (inHg) (mb) (inHg) (C) (F) (%) (C) (F)
00:05 1025 30.27 855 25.25 17.1 62.8 55 8 46.4
00:10 1025 30.27 854 25.22 17.1 62.9 55 8 46.4
00:15 1025 30.27 854 25.22 17.1 62.8 55 8 46.4
00:20 1025 30.27 854 25.22 17.1 62.8 54 7.9 46.3
00:25 1025 30.27 854 25.22 17 62.7 55 8 46.4
00:30 1025 30.27 854 25.22 17 62.6 55 7.9 46.3
00:35 1025 30.27 854 25.22 17 62.7 55 8 46.4
00:40 1025 30.27 854 25.22 17.1 62.7 55 8 46.4
00:45 1025 30.27 854 25.22 17 62.6 55 7.9 46.3
00:50 1025 30.27 854 25.22 17 62.6 54 7.8 46.1
00:55 1025 30.27 854 25.22 17 62.6 55 8 46.4
01:00 1025 30.27 854 25.22 16.9 62.4 55 7.9 46.3
01:05 1025 30.27 854 25.22 16.9 62.3 55 7.8 46.1
01:10 1025 30.27 854 25.22 16.9 62.3 56 8 46.4
01:15 1025 30.27 854 25.22 16.7 62.1 56 8 46.4
01:20 1025 30.27 855 25.25 16.6 61.9 56 7.9 46.3
01:25 1025 30.27 855 25.25 16.6 61.8 56 7.9 46.2
01:30 1026 30.3 855 25.25 16.6 61.8 56 7.9 46.2
01:35 1026 30.3 855 25.25 16.6 61.8 56 7.9 46.3
01:40 1026 30.3 855 25.25 16.4 61.6 57 8.1 46.5
01:45 1026 30.3 855 25.25 16.2 61.1 58 8 46.4
01:50 1026 30.3 855 25.25 16 60.8 58 7.9 46.2
01:55 1026 30.3 855 25.25 16 60.7 59 8 46.3
02:00 1026 30.3 855 25.25 16 60.7 59 7.9 46.2
02:05 1026 30.3 855 25.25 16 60.9 58 7.8 46.1
02:10 1026 30.3 855 25.25 16.1 61 58 7.8 46.1
02:15 1026 30.3 855 25.25 16.2 61.1 58 7.9 46.3
02:20 1026 30.3 855 25.25 16.1 61 58 7.9 46.2
02:25 1026 30.3 855 25.25 16.1 60.9 58 7.9 46.3
02:30 1026 30.3 855 25.25 16 60.7 59 7.9 46.3
02:35 1026 30.3 855 25.25 15.8 60.5 59 7.9 46.2
02:40 1026 30.3 855 25.25 15.8 60.5 59 7.8 46.1
02:45 1026 30.3 855 25.25 15.8 60.5 58 7.8 46
02:50 1026 30.3 855 25.25 15.8 60.5 59 7.9 46.1
02:55 1026 30.3 855 25.25 15.8 60.4 59 7.8 46.1
03:00 1026 30.3 855 25.25 15.8 60.4 59 7.8 46.1
03:05 1026 30.3 855 25.25 15.9 60.6 58 7.7 45.8
03:10 1026 30.3 855 25.25 16 60.8 57 7.6 45.7
03:15 1026 30.3 855 25.25 16.2 61.1 57 7.7 45.9
03:20 1026 30.3 855 25.25 16.1 61 57 7.7 45.9
03:25 1026 30.3 855 25.25 16.1 61 57 7.8 46
03:30 1026 30.3 855 25.25 16.1 60.9 57 7.7 45.9
03:35 1026 30.3 855 25.25 16.1 60.9 57 7.7 45.9
03:40 1026 30.3 855 25.25 16 60.9 57 7.7 45.9
03:45 1026 30.3 855 25.25 16 60.8 58 7.8 46.1
03:50 1026 30.3 855 25.25 15.9 60.5 58 7.8 46
03:55 1026 30.3 855 25.25 15.9 60.6 58 7.7 45.8
04:00 1026 30.3 855 25.25 16 60.7 58 7.7 45.9
04:05 1026 30.3 855 25.25 15.9 60.6 58 7.7 45.8
04:10 1026 30.3 855 25.25 15.8 60.4 59 7.8 46
04:15 1026 30.3 855 25.25 15.6 60 59 7.7 45.9
04:20 1026 30.3 855 25.25 15.4 59.7 60 7.7 45.9
04:25 1026 30.3 855 25.25 15.2 59.3 61 7.8 46
04:30 1026 30.3 855 25.25 14.9 58.8 62 7.8 46
04:35 1026 30.3 855 25.25 14.6 58.2 63 7.8 46
04:40 1026 30.3 855 25.25 14.3 57.7 64 7.7 45.9
04:45 1026 30.3 855 25.25 14.1 57.4 65 7.7 45.9
04:50 1026 30.3 855 25.25 13.9 57.1 66 7.7 45.9
04:55 1026 30.3 855 25.25 13.8 56.8 67 7.7 45.9
05:00 1026 30.3 855 25.25 13.6 56.5 66 7.5 45.6
05:05 1026 30.3 855 25.25 13.6 56.6 66 7.4 45.2
05:10 1026 30.3 855 25.25 13.6 56.5 66 7.4 45.3
05:15 1026 30.3 855 25.25 13.6 56.5 65 7.3 45.2
05:20 1026 30.3 855 25.25 13.6 56.5 65 7.3 45.2
05:25 1026 30.3 855 25.25 13.6 56.4 66 7.4 45.2
05:30 1026 30.3 855 25.25 13.5 56.3 66 7.4 45.3
05:35 1026 30.3 855 25.25 13.4 56.1 66 7.3 45.2
05:40 1026 30.3 855 25.25 13.5 56.2 66 7.3 45.2
05:45 1026 30.3 855 25.25 13.5 56.4 66 7.4 45.2
05:50 1026 30.3 856 25.28 13.5 56.4 66 7.3 45.2
05:55 1026 30.3 856 25.28 13.6 56.4 66 7.4 45.3
06:00 1026 30.3 856 25.28 13.6 56.4 66 7.5 45.4
06:05 1026 30.3 856 25.28 13.6 56.6 66 7.4 45.4
06:10 1026 30.3 856 25.28 13.8 56.8 65 7.5 45.5
06:15 1026 30.3 856 25.28 13.8 56.8 66 7.5 45.5
06:20 1026 30.3 856 25.28 13.9 57 65 7.5 45.6
06:25 1026 30.3 856 25.28 14 57.3 64 7.5 45.5
06:30 1026 30.3 856 25.28 14.2 57.6 64 7.5 45.4
06:35 1026 30.3 856 25.28 14.4 57.9 63 7.4 45.4
06:40 1027 30.33 856 25.28 14.5 58.1 62 7.3 45.2
06:45 1027 30.33 856 25.28 14.7 58.4 61 7.4 45.3
06:50 1027 30.33 856 25.28 15 58.9 61 7.5 45.4
06:55 1027 30.33 856 25.28 15.1 59.1 60 7.5 45.4
07:00 1027 30.33 856 25.28 15.1 59.2 60 7.4 45.4
07:05 1027 30.33 856 25.28 15.3 59.5 60 7.6 45.7
07:10 1027 30.33 856 25.28 15.4 59.8 60 7.7 45.9
07:15 1027 30.33 856 25.28 15.5 59.9 59 7.7 45.8
07:20 1027 30.33 856 25.28 15.6 60.2 59 7.7 45.9
07:25 1027 30.33 856 25.28 16 60.7 58 7.8 46.1
07:30 1026 30.3 856 25.28 16 60.7 58 7.8 46
07:35 1027 30.33 856 25.28 16.4 61.5 57 7.9 46.1
07:40 1026 30.3 856 25.28 16.6 61.9 56 7.9 46.2
07:45 1027 30.33 856 25.28 16.9 62.5 55 8 46.3
07:50 1027 30.33 856 25.28 17.1 62.7 54 7.9 46.3
07:55 1027 30.33 856 25.28 17.3 63.2 53 7.9 46.1
08:00 1027 30.33 856 25.28 17.5 63.5 53 7.8 46
08:05 1027 30.33 856 25.28 17.7 63.8 53 8.1 46.7
08:10 1026 30.3 856 25.28 17.9 64.3 53 8.4 47
08:15 1026 30.3 856 25.28 18.3 65 51 8.1 46.7
08:20 1026 30.3 856 25.28 18.4 65.1 50 7.9 46.2
08:25 1026 30.3 856 25.28 18.5 65.3 51 8.3 46.9
08:30 1026 30.3 856 25.28 19.1 66.3 48 8 46.5
08:35 1026 30.3 856 25.28 19 66.2 48 7.9 46.3
08:40 1026 30.3 856 25.28 19.2 66.6 48 8 46.4
08:45 1026 30.3 855 25.25 19.3 66.7 48 8.2 46.7
08:50 1026 30.3 855 25.25 19.1 66.5 47 7.8 46.1
08:55 1026 30.3 855 25.25 19.6 67.3 47 8 46.4
09:00 1026 30.3 855 25.25 19.8 67.6 46 7.8 46.1
09:05 1026 30.3 855 25.25 20 67.9 46 8.3 46.9
09:10 1026 30.3 855 25.25 20.1 68.2 48 8.8 47.9
09:15 1026 30.3 855 25.25 20.1 68.2 46 8.3 47
09:20 1026 30.3 855 25.25 21.1 69.9 44 8.5 47.3
09:25 1026 30.3 855 25.25 21.2 70.1 46 9.2 48.6
09:30 1026 30.3 855 25.25 21 69.9 46 9 48.2
09:35 1026 30.3 855 25.25 20.4 68.7 46 8.6 47.6
09:40 1026 30.3 855 25.25 21.5 70.7 45 9.2 48.6
09:45 1026 30.3 855 25.25 21.4 70.4 45 9 48.2
09:50 1026 30.3 855 25.25 21.6 71 43 8.7 47.7
09:55 1026 30.3 855 25.25 22.3 72.1 42 8.9 48
10:00 1026 30.3 855 25.25 21.9 71.4 42 8.8 47.8
10:05 1026 30.3 855 25.25 22 71.5 45 9.6 49.3
10:10 1026 30.3 855 25.25 21 69.7 44 8.5 47.3
10:15 1026 30.3 855 25.25 21.5 70.7 45 9.2 48.5
10:20 1026 30.3 855 25.25 21 69.8 45 8.8 47.8
10:25 1026 30.3 855 25.25 21.6 70.8 44 9 48.2
10:30 1026 30.3 855 25.25 21.9 71.4 43 8.9 48
10:35 1026 30.3 855 25.25 22.1 71.8 42 8.7 47.6
10:40 1026 30.3 855 25.25 22.2 71.9 42 8.9 48
10:45 1026 30.3 855 25.25 22.9 73.3 42 9.6 49.3
10:50 1026 30.3 855 25.25 21.6 70.9 43 8.7 47.7
10:55 1026 30.3 855 25.25 22.3 72.2 42 9.1 48.4
11:00 1026 30.3 855 25.25 22.9 73.2 39 8.5 47.3
11:05 1026 30.3 855 25.25 23.5 74.3 39 9 48.1
11:10 1026 30.3 855 25.25 23.7 74.6 37 8.5 47.3
11:15 1025 30.27 855 25.25 23.4 74.1 38 8.6 47.4
11:20 1025 30.27 855 25.25 23.6 74.4 34 6.8 44.3
11:25 1025 30.27 855 25.25 24.1 75.4 38 9 48.1
11:30 1025 30.27 855 25.25 24.2 75.5 36 8.4 47.1
11:35 1025 30.27 855 25.25 25.1 77.2 32 7.7 45.9
11:40 1025 30.27 855 25.25 24.8 76.7 32 7.4 45.2
11:45 1025 30.27 855 25.25 25.1 77.1 33 8.1 46.6
11:50 1025 30.27 855 25.25 25.1 77.1 33 7.7 45.9
11:55 1025 30.27 854 25.22 24.7 76.5 35 8.4 47.1
12:00 1025 30.27 854 25.22 24 75.3 36 8.1 46.5
12:05 1025 30.27 854 25.22 24.3 75.8 34 7.5 45.5
12:10 1025 30.27 854 25.22 25.4 77.7 30 7 44.6
12:15 1025 30.27 854 25.22 25.7 78.2 30 7.1 44.8
12:20 1025 30.27 854 25.22 25.9 78.7 30 7.5 45.5
12:25 1025 30.27 854 25.22 26.4 79.6 29 7.1 44.8
12:30 1025 30.27 854 25.22 26.5 79.8 29 7.5 45.4
12:35 1025 30.27 854 25.22 25.7 78.2 31 7.4 45.3
12:40 1025 30.27 854 25.22 26.2 79.1 28 6.6 43.9
12:45 1025 30.27 854 25.22 26.1 79 28 6.5 43.6
12:50 1025 30.27 854 25.22 26.3 79.3 29 7 44.6
12:55 1025 30.27 854 25.22 26.3 79.3 28 6.8 44.2
13:00 1025 30.27 854 25.22 26.5 79.6 27 6.4 43.5
13:05 1025 30.27 854 25.22 25.8 78.4 29 6.8 44.3
13:10 1025 30.27 854 25.22 26.2 79.1 28 6.3 43.3
13:15 1025 30.27 854 25.22 26.6 80 26 5.6 42.1
13:20 1025 30.27 854 25.22 26.6 79.8 26 5.9 42.6
13:25 1025 30.27 854 25.22 26.9 80.5 25 5.5 41.8
13:30 1025 30.27 854 25.22 27.3 81.1 24 5.2 41.3
13:35 1025 30.27 854 25.22 27.1 80.8 25 5.5 41.8
13:40 1024 30.24 854 25.22 27.1 80.9 21 3.5 38.2
13:45 1024 30.24 854 25.22 27.9 82.2 23 5.1 41.1
13:50 1024 30.24 854 25.22 27.9 82.3 16 0.2 32.4
13:55 1024 30.24 853 25.19 28.3 82.9 17 1.6 34.9
14:00 1024 30.24 853 25.19 28.1 82.6 14 -2 28.4
14:05 1024 30.24 853 25.19 28.2 82.7 15 -0.7 30.8
14:10 1024 30.24 853 25.19 28.2 82.8 17 1.4 34.6
14:15 1024 30.24 853 25.19 27.8 82.1 17 1.2 34.1
14:20 1024 30.24 853 25.19 27.6 81.6 17 0.8 33.4
14:25 1024 30.24 853 25.19 27.9 82.2 15 -0.9 30.4
14:30 1024 30.24 853 25.19 28.4 83.2 16 0.2 32.4
14:35 1024 30.24 853 25.19 28.5 83.2 17 1.6 34.9
14:40 1024 30.24 853 25.19 27.9 82.1 16 -0.1 31.7
14:45 1024 30.24 853 25.19 27.6 81.6 15 -1 30.2
14:50 1024 30.24 853 25.19 28.1 82.6 15 -0.7 30.7
14:55 1024 30.24 853 25.19 27.5 81.5 15 -0.9 30.3
15:00 1023 30.21 853 25.19 27.2 81 15 -1 30.2
15:05 1023 30.21 853 25.19 27.8 82.1 16 -0.3 31.4
15:10 1023 30.21 853 25.19 27.2 81 17 0.5 32.9
15:15 1023 30.21 853 25.19 27.5 81.4 15 -0.7 30.7
15:20 1023 30.21 852 25.16 27.7 81.8 15 -0.7 30.8
15:25 1023 30.21 852 25.16 27.8 82 15 -0.5 31
15:30 1023 30.21 852 25.16 28.2 82.8 16 0.2 32.3
15:35 1023 30.21 852 25.16 28.1 82.6 15 -0.5 31.1
15:40 1023 30.21 852 25.16 27.9 82.3 17 0.9 33.5
15:45 1023 30.21 852 25.16 28.1 82.5 17 1.2 34.2
15:50 1023 30.21 852 25.16 28.1 82.6 16 0.2 32.4
15:55 1023 30.21 852 25.16 29 84.3 15 -0.3 31.5
16:00 1023 30.21 852 25.16 29.1 84.4 15 0.5 32.9
16:05 1023 30.21 852 25.16 28.9 84.1 15 0.4 32.6
16:10 1023 30.21 852 25.16 29 84.1 16 0.6 33
16:15 1022 30.18 852 25.16 29.2 84.6 15 0 32
16:20 1022 30.18 852 25.16 29.1 84.4 15 0.6 33.1
16:25 1022 30.18 852 25.16 27.8 82.1 17 1 33.8
16:30 1022 30.18 851 25.13 27.6 81.6 18 1 33.9
16:35 1022 30.18 851 25.13 27.2 81 18 1.3 34.4
16:40 1022 30.18 851 25.13 27.3 81.2 17 0.6 33
16:45 1022 30.18 851 25.13 27.4 81.3 17 0.8 33.5
16:50 1022 30.18 851 25.13 28.1 82.7 16 0.7 33.2
16:55 1022 30.18 851 25.13 28.2 82.7 17 0.7 33.3
17:00 1022 30.18 851 25.13 27.5 81.5 18 1.2 34.1
17:05 1022 30.18 851 25.13 28.1 82.6 16 0.3 32.5
17:10 1022 30.18 851 25.13 28.5 83.2 17 1.2 34.1
17:15 1022 30.18 851 25.13 28.1 82.5 18 1.9 35.5
17:20 1022 30.18 851 25.13 27.6 81.7 18 1.2 34.1
17:25 1022 30.18 851 25.13 28 82.4 17 1.4 34.5
17:30 1022 30.18 851 25.13 27.7 81.9 21 3.7 38.6
17:35 1022 30.18 851 25.13 25.3 77.6 36 9.6 49.3
17:40 1022 30.18 851 25.13 23.4 74 41 9.6 49.4
17:45 1022 30.18 851 25.13 22.3 72.1 44 9.6 49.3
17:50 1022 30.18 851 25.13 21.8 71.3 43 9 48.1
17:55 1022 30.18 851 25.13 21.5 70.7 44 9 48.2
18:00 1022 30.18 851 25.13 21.4 70.4 44 8.9 48
18:05 1022 30.18 851 25.13 20.9 69.6 45 8.6 47.5
18:10 1022 30.18 851 25.13 20.8 69.5 44 8.3 46.9
18:15 1022 30.18 851 25.13 20.7 69.3 44 8.1 46.7
18:20 1022 30.18 851 25.13 20.5 68.8 44 8 46.5
18:25 1022 30.18 851 25.13 20.4 68.6 44 8 46.3
18:30 1022 30.18 851 25.13 20.3 68.5 45 8 46.4
18:35 1022 30.18 851 25.13 20.2 68.3 46 8.2 46.8
18:40 1022 30.18 851 25.13 20.1 68.2 46 8.1 46.6
18:45 1022 30.18 851 25.13 20 68 46 8.1 46.6
18:50 1022 30.18 851 25.13 19.8 67.7 45 7.8 46
18:55 1022 30.18 851 25.13 19.8 67.6 45 7.8 46
19:00 1022 30.18 851 25.13 19.7 67.5 46 7.9 46.2
19:05 1022 30.18 851 25.13 19.6 67.4 45 7.5 45.5
19:10 1022 30.18 851 25.13 19.6 67.2 44 7.3 45.1
19:15 1022 30.18 851 25.13 19.5 67.2 44 7.1 44.7
19:20 1022 30.18 851 25.13 19.5 67 44 7 44.7
19:25 1022 30.18 851 25.13 19.4 67 43 6.8 44.2
19:30 1022 30.18 852 25.16 19.5 67 42 6.5 43.8
19:35 1023 30.21 852 25.16 19.4 67 43 6.7 44
19:40 1023 30.21 852 25.16 19.3 66.8 43 6.7 44
19:45 1023 30.21 852 25.16 19.3 66.7 44 6.9 44.4
19:50 1023 30.21 852 25.16 19.2 66.6 44 6.9 44.4
19:55 1023 30.21 852 25.16 19.1 66.4 44 6.6 44
20:00 1023 30.21 852 25.16 19.1 66.3 44 6.7 44
20:05 1023 30.21 852 25.16 18.9 66.1 45 6.8 44.3
20:10 1023 30.21 852 25.16 18.8 65.9 46 7.2 45
20:15 1023 30.21 852 25.16 18.7 65.6 47 7.4 45.4
20:20 1023 30.21 852 25.16 18.6 65.5 48 7.5 45.5
20:25 1023 30.21 852 25.16 18.5 65.2 49 7.7 45.8
20:30 1023 30.21 853 25.19 18.3 64.9 49 7.5 45.5
20:35 1023 30.21 853 25.19 18.3 64.9 48 7.1 44.8
20:40 1023 30.21 853 25.19 18.3 65 46 6.8 44.2
20:45 1024 30.24 853 25.19 18.3 65 46 6.7 44
20:50 1024 30.24 853 25.19 18.3 64.9 46 6.7 44.1
20:55 1024 30.24 853 25.19 18.1 64.6 49 7.3 45.1
21:00 1024 30.24 853 25.19 17.9 64.2 50 7.3 45.2
21:05 1024 30.24 853 25.19 17.8 64 51 7.7 45.9
21:10 1024 30.24 853 25.19 17.7 63.9 52 7.8 46.1
21:15 1024 30.24 853 25.19 17.6 63.6 52 7.8 46.1
21:20 1024 30.24 853 25.19 17.5 63.4 53 8 46.4
21:25 1024 30.24 853 25.19 17.3 63.2 54 8.1 46.5
21:30 1024 30.24 853 25.19 17.2 62.9 56 8.4 47.1
21:35 1024 30.24 853 25.19 16.9 62.5 58 8.7 47.6
21:40 1024 30.24 853 25.19 16.7 62.1 59 8.8 47.8
21:45 1024 30.24 853 25.19 16.5 61.8 60 8.8 47.8
21:50 1024 30.24 853 25.19 16.4 61.6 60 8.8 47.9
21:55 1024 30.24 853 25.19 16.3 61.4 61 8.8 47.9
22:00 1024 30.24 853 25.19 16.3 61.4 61 8.8 47.9
22:05 1024 30.24 853 25.19 16.2 61.2 61 8.9 48
22:10 1024 30.24 853 25.19 16.2 61.2 61 8.9 47.9
22:15 1024 30.24 853 25.19 16.1 61.1 61 8.8 47.8
22:20 1024 30.24 853 25.19 16.1 61 62 8.8 47.9
22:25 1024 30.24 853 25.19 16.1 60.9 62 8.8 47.8
22:30 1024 30.24 853 25.19 16.1 61 61 8.7 47.7
22:35 1024 30.24 853 25.19 16.1 61 61 8.8 47.8
22:40 1024 30.24 853 25.19 16.1 61 62 8.9 48
22:45 1024 30.24 853 25.19 16 60.8 62 8.8 47.9
22:50 1024 30.24 853 25.19 16 60.8 62 8.9 48
22:55 1024 30.24 853 25.19 15.9 60.6 62 8.7 47.7
23:00 1024 30.24 853 25.19 15.8 60.4 62 8.7 47.6
23:05 1024 30.24 853 25.19 15.7 60.2 63 8.7 47.6
23:10 1024 30.24 853 25.19 15.6 60.1 63 8.5 47.4
23:15 1024 30.24 853 25.19 15.6 60.1 62 8.4 47.2
23:20 1024 30.24 853 25.19 15.6 60 62 8.5 47.2
23:25 1024 30.24 853 25.19 15.5 59.9 62 8.4 47
23:30 1024 30.24 853 25.19 15.5 59.9 62 8.2 46.8
23:35 1024 30.24 854 25.22 15.5 59.8 62 8.2 46.7
23:40 1024 30.24 854 25.22 15.4 59.7 62 8.2 46.7
23:45 1024 30.24 854 25.22 15.3 59.6 62 8.1 46.6
23:50 1024 30.24 854 25.22 15.3 59.5 62 8 46.5
23:55 1024 30.24 854 25.22 15.2 59.3 62 8.1 46.5
24:00 1024 30.24 854 25.22 15.1 59.1 63 8.1 46.5